Time;durP1;ratioP1;P1;durP2;ratioP2;P2;SDS_P1;SDS_P2;PMS_P1;PMS_P2;Temp;Humidity;BMP_temperature;BMP_pressure;BME280_temperature;BME280_humidity;BME280_pressure;Samples;Min_cycle;Max_cycle;Signal;HPM_P1;HPM_P2
2022/01/22 00:01:02;;;;;;;0.30;0.20;;;;;;;;;;5054566;28;20091;-65
2022/01/22 00:03:27;;;;;;;0.98;0.20;;;;;;;;;;5053829;28;20120;-65
2022/01/22 00:05:52;;;;;;;0.53;0.27;;;;;;;;;;5053935;28;20124;-64
2022/01/22 00:08:17;;;;;;;1.13;0.50;;;;;;;;;;5052875;28;20246;-64
2022/01/22 00:10:44;;;;;;;0.95;0.30;;;;;;;;;;5054395;28;20028;-64
2022/01/22 00:15:43;;;;;;;;;;;;;;;;;;5054966;28;20021;-64
2022/01/22 00:18:09;;;;;;;1.15;0.20;;;;;;;;;;5052778;28;19950;-64
2022/01/22 00:20:36;;;;;;;0.30;0.25;;;;;;;;;;5054116;28;20448;-64
2022/01/22 00:23:02;;;;;;;0.63;0.10;;;;;;;;;;5054076;28;20452;-64
2022/01/22 00:25:27;;;;;;;0.50;0.20;;;;;;;;;;5053706;28;20108;-64
2022/01/22 00:27:52;;;;;;;0.77;0.30;;;;;;;;;;5054017;28;20278;-64
2022/01/22 00:30:19;;;;;;;0.77;0.25;;;;;;;;;;5053782;28;20468;-64
2022/01/22 00:32:45;;;;;;;0.43;0.20;;;;;;;;;;5053945;28;20466;-64
2022/01/22 00:35:10;;;;;;;0.70;0.20;;;;;;;;;;5053736;28;20016;-64
2022/01/22 00:37:36;;;;;;;0.80;0.10;;;;;;;;;;5053668;28;20021;-64
2022/01/22 00:40:03;;;;;;;1.35;0.30;;;;;;;;;;5052342;28;20024;-64
2022/01/22 00:42:29;;;;;;;0.85;0.20;;;;;;;;;;5053470;28;20517;-64
2022/01/22 00:44:54;;;;;;;0.00;0.00;;;;;;;;;;5053759;28;20025;-64
2022/01/22 00:47:19;;;;;;;0.68;0.20;;;;;;;;;;5051979;28;20027;-64
2022/01/22 00:49:45;;;;;;;0.20;0.10;;;;;;;;;;5053554;28;20061;-64
2022/01/22 00:52:10;;;;;;;1.33;0.30;;;;;;;;;;5053434;28;20024;-64
2022/01/22 00:54:35;;;;;;;1.10;0.40;;;;;;;;;;5053181;28;20036;-64
2022/01/22 00:57:01;;;;;;;1.27;0.30;;;;;;;;;;5053476;28;20036;-64
2022/01/22 00:59:26;;;;;;;0.35;0.17;;;;;;;;;;5053053;28;20017;-64
2022/01/22 01:01:51;;;;;;;0.25;0.10;;;;;;;;;;5053345;28;20029;-64
2022/01/22 01:04:16;;;;;;;0.30;0.15;;;;;;;;;;5052969;28;20072;-64
2022/01/22 01:06:42;;;;;;;0.30;0.17;;;;;;;;;;5052025;28;20264;-64
2022/01/22 01:09:08;;;;;;;1.90;0.50;;;;;;;;;;5053055;28;20299;-64
2022/01/22 01:11:39;;;;;;;0.75;0.30;;;;;;;;;;5052997;28;20013;-64
2022/01/22 01:14:07;;;;;;;0.52;0.20;;;;;;;;;;5053052;28;20471;-64
2022/01/22 01:32:51;;;;;;;0.30;0.20;;;;;;;;;;5052817;28;20067;-64
2022/01/22 01:35:17;;;;;;;0.85;0.10;;;;;;;;;;5052568;28;20021;-64
2022/01/22 01:37:42;;;;;;;0.90;0.17;;;;;;;;;;5052580;28;20095;-64
2022/01/22 01:40:09;;;;;;;0.63;0.20;;;;;;;;;;5052620;28;20029;-64
2022/01/22 01:43:22;;;;;;;0.93;0.38;;;;;;;;;;5052428;28;20373;-64
2022/01/22 01:45:23;;;;;;;0.50;0.13;;;;;;;;;;5049079;28;20082;-64
2022/01/22 01:48:13;;;;;;;1.60;0.30;;;;;;;;;;5052467;28;20421;-64
2022/01/22 01:50:40;;;;;;;0.52;0.22;;;;;;;;;;5051437;28;20064;-64
2022/01/22 01:53:15;;;;;;;0.55;0.20;;;;;;;;;;5052443;28;20465;-64
2022/01/22 01:58:24;;;;;;;0.40;0.20;;;;;;;;;;5052531;28;20103;-64
2022/01/22 02:00:50;;;;;;;1.55;0.50;;;;;;;;;;5052409;28;20108;-64
2022/01/22 02:03:15;;;;;;;0.70;0.10;;;;;;;;;;5051782;28;20024;-64
2022/01/22 02:05:40;;;;;;;0.57;0.17;;;;;;;;;;5052012;28;20124;-64
2022/01/22 02:08:06;;;;;;;0.17;0.17;;;;;;;;;;5052216;28;20021;-64
2022/01/22 02:10:36;;;;;;;0.80;0.20;;;;;;;;;;5052208;28;20403;-64
2022/01/22 02:23:58;;;;;;;0.40;0.20;;;;;;;;;;5052288;28;20317;-64
2022/01/22 02:26:23;;;;;;;1.60;0.52;;;;;;;;;;5050476;28;20053;-64
2022/01/22 02:28:50;;;;;;;0.75;0.20;;;;;;;;;;5055894;28;20048;-64
2022/01/22 02:31:40;;;;;;;0.35;0.25;;;;;;;;;;5055931;28;20009;-65
2022/01/22 02:34:22;;;;;;;0.73;0.20;;;;;;;;;;5056054;28;20100;-64
2022/01/22 02:37:10;;;;;;;1.42;0.20;;;;;;;;;;5056216;28;20021;-64
2022/01/22 02:42:24;;;;;;;0.65;0.30;;;;;;;;;;5033120;28;20155;-64
2022/01/22 02:44:49;;;;;;;0.82;0.20;;;;;;;;;;5033659;28;20116;-64
2022/01/22 02:47:15;;;;;;;0.88;0.20;;;;;;;;;;5033107;28;20116;-64
2022/01/22 02:49:41;;;;;;;1.08;0.52;;;;;;;;;;5033362;28;20152;-64
2022/01/22 02:52:10;;;;;;;0.70;0.23;;;;;;;;;;5033420;28;20100;-64
2022/01/22 02:54:36;;;;;;;0.30;0.25;;;;;;;;;;5033301;28;20630;-64
2022/01/22 02:57:01;;;;;;;0.63;0.30;;;;;;;;;;5033472;28;20080;-64
2022/01/22 02:59:26;;;;;;;0.45;0.35;;;;;;;;;;5032916;28;20037;-64
2022/01/22 03:01:52;;;;;;;0.40;0.30;;;;;;;;;;5033336;28;20523;-64
2022/01/22 03:04:17;;;;;;;0.55;0.20;;;;;;;;;;5032901;28;20140;-64
2022/01/22 03:06:43;;;;;;;0.90;0.40;;;;;;;;;;5033144;28;20049;-64
2022/01/22 03:09:12;;;;;;;0.85;0.30;;;;;;;;;;5032913;28;20267;-64
2022/01/22 03:12:12;;;;;;;0.60;0.20;;;;;;;;;;5033104;28;20053;-64
2022/01/22 03:22:25;;;;;;;1.57;0.30;;;;;;;;;;5055419;28;20024;-64
2022/01/22 03:27:34;;;;;;;0.80;0.40;;;;;;;;;;5055063;28;20148;-64
2022/01/22 03:30:00;;;;;;;0.10;0.10;;;;;;;;;;5054303;28;20099;-65
2022/01/22 03:32:29;;;;;;;0.40;0.22;;;;;;;;;;5054939;28;20452;-64
2022/01/22 03:35:10;;;;;;;0.65;0.30;;;;;;;;;;5055083;28;20059;-64
2022/01/22 03:37:35;;;;;;;0.57;0.20;;;;;;;;;;5054865;28;20475;-64
2022/01/22 03:40:01;;;;;;;0.60;0.20;;;;;;;;;;5053980;28;20119;-64
2022/01/22 03:42:26;;;;;;;0.73;0.20;;;;;;;;;;5054457;28;20017;-64
2022/01/22 03:44:51;;;;;;;0.73;0.40;;;;;;;;;;5054841;28;20070;-64
2022/01/22 03:47:17;;;;;;;1.15;0.20;;;;;;;;;;5054466;28;20029;-64
2022/01/22 03:49:42;;;;;;;0.30;0.10;;;;;;;;;;5055005;28;20017;-64
2022/01/22 03:52:07;;;;;;;0.97;0.20;;;;;;;;;;5054623;28;20415;-64
2022/01/22 03:54:32;;;;;;;0.47;0.30;;;;;;;;;;5053280;28;20785;-64
2022/01/22 03:56:58;;;;;;;1.83;0.40;;;;;;;;;;5054596;28;20483;-64
2022/01/22 03:59:23;;;;;;;1.30;0.32;;;;;;;;;;5054532;28;20029;-64
2022/01/22 04:04:25;;;;;;;0.60;0.20;;;;;;;;;;5054322;28;20072;-64
2022/01/22 04:07:23;;;;;;;0.88;0.28;;;;;;;;;;5054351;28;20096;-64
2022/01/22 04:09:43;;;;;;;1.13;0.22;;;;;;;;;;5054194;28;20116;-64
2022/01/22 04:12:11;;;;;;;0.93;0.20;;;;;;;;;;5054257;28;20031;-64
2022/01/22 04:14:44;;;;;;;0.80;0.20;;;;;;;;;;5054322;28;20521;-64
2022/01/22 04:25:10;;;;;;;0.93;0.20;;;;;;;;;;5054231;28;20452;-64
2022/01/22 04:27:35;;;;;;;0.77;0.30;;;;;;;;;;5054080;28;20013;-63
2022/01/22 04:30:00;;;;;;;0.98;0.20;;;;;;;;;;5054076;28;20074;-64
2022/01/22 04:32:27;;;;;;;0.77;0.25;;;;;;;;;;5053779;28;20086;-64
2022/01/22 04:34:52;;;;;;;0.55;0.20;;;;;;;;;;5053960;28;20031;-64
2022/01/22 04:37:18;;;;;;;0.47;0.10;;;;;;;;;;5053669;28;20028;-64
2022/01/22 04:39:44;;;;;;;0.68;0.13;;;;;;;;;;5054070;28;20068;-64
2022/01/22 04:42:09;;;;;;;0.50;0.20;;;;;;;;;;5053621;28;20021;-64
2022/01/22 04:44:41;;;;;;;0.28;0.20;;;;;;;;;;5053923;28;20059;-64
2022/01/22 04:55:01;;;;;;;0.55;0.20;;;;;;;;;;5053827;28;20021;-64
2022/01/22 04:57:31;;;;;;;0.25;0.25;;;;;;;;;;5053112;28;20027;-64
2022/01/22 04:59:56;;;;;;;0.95;0.20;;;;;;;;;;5053432;28;20036;-64
2022/01/22 05:02:21;;;;;;;0.30;0.22;;;;;;;;;;5053096;28;20020;-64
2022/01/22 05:04:47;;;;;;;0.60;0.20;;;;;;;;;;5051953;28;20044;-64
2022/01/22 05:07:12;;;;;;;0.70;0.20;;;;;;;;;;5052898;28;20025;-64
2022/01/22 05:09:37;;;;;;;0.20;0.20;;;;;;;;;;5053134;28;20029;-64
2022/01/22 05:12:04;;;;;;;1.30;0.30;;;;;;;;;;5053190;28;20606;-64
2022/01/22 05:14:29;;;;;;;0.47;0.20;;;;;;;;;;5052996;28;20017;-64
2022/01/22 05:16:56;;;;;;;0.85;0.20;;;;;;;;;;5053154;28;20025;-64
2022/01/22 05:19:32;;;;;;;1.10;0.38;;;;;;;;;;5052632;28;20397;-64
2022/01/22 05:22:04;;;;;;;0.98;0.30;;;;;;;;;;5053033;28;20025;-64
2022/01/22 05:24:32;;;;;;;0.20;0.20;;;;;;;;;;5052844;28;20040;-64
2022/01/22 05:37:06;;;;;;;1.30;0.10;;;;;;;;;;5052812;28;20261;-64
2022/01/22 05:39:32;;;;;;;0.52;0.35;;;;;;;;;;5052422;28;20456;-64
2022/01/22 05:41:58;;;;;;;0.20;0.20;;;;;;;;;;5052670;28;20025;-64
2022/01/22 05:44:24;;;;;;;0.80;0.20;;;;;;;;;;5052441;28;20275;-64
2022/01/22 05:46:51;;;;;;;1.10;0.30;;;;;;;;;;5052593;28;20017;-63
2022/01/22 05:49:18;;;;;;;1.38;0.20;;;;;;;;;;5052571;28;20013;-64
2022/01/22 05:51:46;;;;;;;2.05;0.20;;;;;;;;;;5052579;28;20059;-64
2022/01/22 05:59:37;;;;;;;0.32;0.32;;;;;;;;;;5052256;28;20036;-63
2022/01/22 06:02:03;;;;;;;0.98;0.50;;;;;;;;;;5052049;28;20453;-64
2022/01/22 06:04:28;;;;;;;0.57;0.25;;;;;;;;;;5051939;28;20049;-64
2022/01/22 06:06:53;;;;;;;1.00;0.30;;;;;;;;;;5052307;28;20032;-64
2022/01/22 06:09:18;;;;;;;1.25;0.38;;;;;;;;;;5052358;28;20040;-64
2022/01/22 06:14:41;;;;;;;0.30;0.20;;;;;;;;;;4990423;28;20045;-64
2022/01/22 06:17:06;;;;;;;0.73;0.10;;;;;;;;;;4990504;28;20022;-64
2022/01/22 06:19:32;;;;;;;0.30;0.17;;;;;;;;;;4990329;28;20026;-64
2022/01/22 06:21:57;;;;;;;0.47;0.20;;;;;;;;;;4990682;28;20030;-64
2022/01/22 06:24:22;;;;;;;0.93;0.45;;;;;;;;;;4990209;28;20767;-64
2022/01/22 06:26:48;;;;;;;0.60;0.30;;;;;;;;;;4990438;28;20453;-64
2022/01/22 06:29:13;;;;;;;0.70;0.40;;;;;;;;;;4990291;28;20462;-64
2022/01/22 06:31:39;;;;;;;0.32;0.10;;;;;;;;;;4990319;28;20030;-64
2022/01/22 06:34:04;;;;;;;0.32;0.10;;;;;;;;;;4990469;28;20085;-64
2022/01/22 06:36:30;;;;;;;0.35;0.22;;;;;;;;;;4990203;28;20098;-64
2022/01/22 06:39:10;;;;;;;0.68;0.25;;;;;;;;;;4990464;28;20092;-63
2022/01/22 06:41:45;;;;;;;0.68;0.30;;;;;;;;;;4990195;28;20294;-64
2022/01/22 06:44:18;;;;;;;0.65;0.38;;;;;;;;;;4990204;28;20037;-64
2022/01/22 06:46:44;;;;;;;0.73;0.13;;;;;;;;;;4990293;28;20570;-64
2022/01/22 06:49:09;;;;;;;0.30;0.20;;;;;;;;;;4992245;28;20469;-64
2022/01/22 06:51:34;;;;;;;0.40;0.40;;;;;;;;;;5052044;28;20104;-64
2022/01/22 06:54:04;;;;;;;0.20;0.10;;;;;;;;;;5052196;28;20021;-64
2022/01/22 06:56:30;;;;;;;0.95;0.40;;;;;;;;;;5051733;28;20047;-64
2022/01/22 06:58:55;;;;;;;1.55;0.40;;;;;;;;;;5051866;28;20484;-64
2022/01/22 07:01:21;;;;;;;0.30;0.20;;;;;;;;;;5051466;28;20108;-63
2022/01/22 07:03:46;;;;;;;0.50;0.30;;;;;;;;;;5051821;28;20078;-64
2022/01/22 07:06:11;;;;;;;0.40;0.20;;;;;;;;;;5051281;28;20424;-64
2022/01/22 07:08:36;;;;;;;0.70;0.23;;;;;;;;;;5051924;28;20427;-64
2022/01/22 07:11:02;;;;;;;0.25;0.10;;;;;;;;;;5051714;28;20273;-64
2022/01/22 07:13:27;;;;;;;0.17;0.15;;;;;;;;;;5051342;28;20025;-64
2022/01/22 07:15:52;;;;;;;0.32;0.20;;;;;;;;;;5055074;28;20021;-64
2022/01/22 07:18:17;;;;;;;1.27;0.40;;;;;;;;;;5054219;28;20035;-63
2022/01/22 07:20:44;;;;;;;1.30;0.40;;;;;;;;;;5055257;28;20017;-64
2022/01/22 07:23:16;;;;;;;0.65;0.10;;;;;;;;;;5055106;28;20527;-64
2022/01/22 07:25:42;;;;;;;1.02;0.52;;;;;;;;;;5055126;28;20024;-64
2022/01/22 07:28:08;;;;;;;0.47;0.20;;;;;;;;;;5054990;28;20021;-64
2022/01/22 07:30:33;;;;;;;0.22;0.20;;;;;;;;;;5055031;28;20139;-64
2022/01/22 07:32:58;;;;;;;0.75;0.20;;;;;;;;;;5055451;28;20024;-64
2022/01/22 07:35:23;;;;;;;1.05;0.45;;;;;;;;;;5053345;28;20021;-64
2022/01/22 07:37:49;;;;;;;0.23;0.23;;;;;;;;;;5055028;28;20091;-64
2022/01/22 07:40:14;;;;;;;0.25;0.10;;;;;;;;;;5054747;28;20461;-63
2022/01/22 07:42:40;;;;;;;1.00;0.47;;;;;;;;;;5054806;28;20107;-64
2022/01/22 07:45:06;;;;;;;0.85;0.40;;;;;;;;;;5055073;28;20017;-63
2022/01/22 07:47:31;;;;;;;0.57;0.13;;;;;;;;;;5054774;28;20056;-64
2022/01/22 07:49:56;;;;;;;0.75;0.35;;;;;;;;;;5054852;28;20467;-64
2022/01/22 07:52:22;;;;;;;2.25;0.20;;;;;;;;;;5054543;28;20013;-64
2022/01/22 07:54:47;;;;;;;0.63;0.10;;;;;;;;;;5055082;28;20029;-64
2022/01/22 07:57:12;;;;;;;0.83;0.40;;;;;;;;;;5054407;28;20534;-64
2022/01/22 07:59:37;;;;;;;2.77;0.30;;;;;;;;;;5054484;28;20258;-64
2022/01/22 08:02:03;;;;;;;0.68;0.40;;;;;;;;;;5054538;28;20257;-63
2022/01/22 08:04:29;;;;;;;0.85;0.40;;;;;;;;;;5054071;28;20037;-64
2022/01/22 08:06:56;;;;;;;0.82;0.28;;;;;;;;;;5054410;28;20044;-64
2022/01/22 08:09:21;;;;;;;0.95;0.20;;;;;;;;;;5054030;28;20021;-64
2022/01/22 08:11:47;;;;;;;1.17;0.40;;;;;;;;;;5054454;28;20091;-64
2022/01/22 08:14:12;;;;;;;0.30;0.30;;;;;;;;;;5054155;28;20013;-64
2022/01/22 08:16:37;;;;;;;0.57;0.30;;;;;;;;;;5054266;28;20033;-64
2022/01/22 08:19:03;;;;;;;0.40;0.25;;;;;;;;;;5054205;28;20265;-63
2022/01/22 08:21:29;;;;;;;2.05;0.60;;;;;;;;;;5053849;28;20059;-64
2022/01/22 08:23:54;;;;;;;0.30;0.20;;;;;;;;;;5054180;28;20067;-63
2022/01/22 08:26:24;;;;;;;1.00;0.40;;;;;;;;;;5053482;28;20066;-64
2022/01/22 08:28:58;;;;;;;0.30;0.20;;;;;;;;;;5054114;28;20108;-64
2022/01/22 08:36:33;;;;;;;1.02;0.30;;;;;;;;;;5053931;28;20499;-63
2022/01/22 08:38:58;;;;;;;0.55;0.43;;;;;;;;;;5053866;28;20025;-64
2022/01/22 08:41:23;;;;;;;0.40;0.30;;;;;;;;;;5053500;28;20464;-64
2022/01/22 08:43:48;;;;;;;0.20;0.20;;;;;;;;;;5052764;28;20262;-64
2022/01/22 08:46:13;;;;;;;0.80;0.30;;;;;;;;;;5053907;28;20054;-64
2022/01/22 08:48:38;;;;;;;0.63;0.50;;;;;;;;;;5053960;28;20020;-64
2022/01/22 08:51:04;;;;;;;1.65;0.20;;;;;;;;;;5053624;28;20593;-64
2022/01/22 08:53:29;;;;;;;0.50;0.30;;;;;;;;;;5053310;28;20023;-64
2022/01/22 08:55:56;;;;;;;0.60;0.30;;;;;;;;;;5053625;28;20009;-64
2022/01/22 08:58:21;;;;;;;0.50;0.32;;;;;;;;;;5053304;28;20059;-64
2022/01/22 09:00:47;;;;;;;0.68;0.30;;;;;;;;;;5053828;28;20021;-64
2022/01/22 09:03:15;;;;;;;1.60;0.40;;;;;;;;;;5053261;28;20021;-64
2022/01/22 09:05:41;;;;;;;0.85;0.40;;;;;;;;;;5053082;28;20313;-64
2022/01/22 09:08:06;;;;;;;0.20;0.20;;;;;;;;;;5053233;28;20052;-64
2022/01/22 09:10:31;;;;;;;0.32;0.32;;;;;;;;;;5053202;28;20024;-64
2022/01/22 09:12:56;;;;;;;0.98;0.20;;;;;;;;;;5053215;28;20381;-64
2022/01/22 09:15:22;;;;;;;0.60;0.40;;;;;;;;;;5052725;28;20043;-64
2022/01/22 09:17:48;;;;;;;0.43;0.38;;;;;;;;;;5053135;28;20100;-64
2022/01/22 09:20:29;;;;;;;0.82;0.30;;;;;;;;;;5052896;28;20025;-63
2022/01/22 09:22:54;;;;;;;1.85;0.20;;;;;;;;;;5053046;28;20024;-64
2022/01/22 09:25:20;;;;;;;2.25;0.22;;;;;;;;;;5052652;28;20021;-64
2022/01/22 09:27:45;;;;;;;0.77;0.30;;;;;;;;;;5052859;28;20020;-64
2022/01/22 09:30:10;;;;;;;0.37;0.20;;;;;;;;;;5052752;28;20261;-64
2022/01/22 09:32:35;;;;;;;0.13;0.10;;;;;;;;;;5052783;28;20118;-63
2022/01/22 09:35:00;;;;;;;0.28;0.20;;;;;;;;;;5053190;28;20025;-64
2022/01/22 09:37:26;;;;;;;1.58;0.45;;;;;;;;;;5051865;28;20033;-63
2022/01/22 09:39:51;;;;;;;0.52;0.20;;;;;;;;;;5052694;28;20020;-64
2022/01/22 09:42:17;;;;;;;0.50;0.32;;;;;;;;;;5052483;28;20009;-63
2022/01/22 09:44:43;;;;;;;0.28;0.20;;;;;;;;;;5052660;28;20025;-64
2022/01/22 09:47:10;;;;;;;0.35;0.30;;;;;;;;;;5052474;28;20025;-64
2022/01/22 09:49:35;;;;;;;0.68;0.40;;;;;;;;;;5052734;28;20052;-64
2022/01/22 09:52:00;;;;;;;1.40;0.30;;;;;;;;;;5052661;28;20049;-64
2022/01/22 09:54:25;;;;;;;0.30;0.30;;;;;;;;;;5052371;28;20032;-64
2022/01/22 09:56:50;;;;;;;0.90;0.30;;;;;;;;;;5052861;28;20456;-64
2022/01/22 09:59:15;;;;;;;1.80;0.50;;;;;;;;;;5052338;28;20258;-64
2022/01/22 10:01:41;;;;;;;0.30;0.30;;;;;;;;;;5052406;28;20033;-64
2022/01/22 10:04:07;;;;;;;0.30;0.20;;;;;;;;;;5052026;28;20747;-64
2022/01/22 10:06:33;;;;;;;0.30;0.20;;;;;;;;;;5052046;28;20477;-64
2022/01/22 10:09:06;;;;;;;1.23;0.30;;;;;;;;;;5052582;28;20339;-64
2022/01/22 10:11:32;;;;;;;0.98;0.50;;;;;;;;;;5052038;28;20013;-64
2022/01/22 10:13:59;;;;;;;1.05;0.30;;;;;;;;;;5052337;28;20103;-64
2022/01/22 10:16:31;;;;;;;1.00;0.20;;;;;;;;;;5052066;28;20063;-64
2022/01/22 10:19:08;;;;;;;1.75;0.40;;;;;;;;;;5052275;28;20424;-64
2022/01/22 10:21:33;;;;;;;0.28;0.28;;;;;;;;;;5052055;28;20462;-64
2022/01/22 10:24:17;;;;;;;0.73;0.30;;;;;;;;;;5051301;28;20121;-64
2022/01/22 10:26:42;;;;;;;1.95;0.30;;;;;;;;;;5052021;28;20273;-64
2022/01/22 10:29:09;;;;;;;0.77;0.20;;;;;;;;;;5052166;28;20611;-64
2022/01/22 10:31:41;;;;;;;0.50;0.22;;;;;;;;;;5051934;28;20258;-64
2022/01/22 10:34:07;;;;;;;2.05;0.28;;;;;;;;;;5052108;28;20358;-64
2022/01/22 10:36:32;;;;;;;0.45;0.20;;;;;;;;;;5051979;28;20020;-64
2022/01/22 10:38:58;;;;;;;0.60;0.52;;;;;;;;;;5052075;28;20071;-64
2022/01/22 10:41:42;;;;;;;1.17;0.20;;;;;;;;;;5051634;28;20100;-64
2022/01/22 10:44:09;;;;;;;0.73;0.20;;;;;;;;;;5051919;28;20060;-64
2022/01/22 10:49:10;;;;;;;0.65;0.17;;;;;;;;;;5054526;28;20103;-64
2022/01/22 10:51:52;;;;;;;0.82;0.55;;;;;;;;;;5054493;28;20101;-63
2022/01/22 10:54:19;;;;;;;0.77;0.30;;;;;;;;;;5055424;28;20021;-64
2022/01/22 10:56:45;;;;;;;1.52;0.50;;;;;;;;;;5054514;28;20025;-64
2022/01/22 10:59:11;;;;;;;0.30;0.22;;;;;;;;;;5054271;28;20131;-64
2022/01/22 11:01:54;;;;;;;0.82;0.22;;;;;;;;;;5055624;28;20027;-64
2022/01/22 11:04:25;;;;;;;1.55;0.25;;;;;;;;;;5055306;28;20052;-63
2022/01/22 11:06:57;;;;;;;0.93;0.60;;;;;;;;;;5055561;28;20029;-64
2022/01/22 11:09:23;;;;;;;0.55;0.32;;;;;;;;;;5053716;28;20502;-64
2022/01/22 11:11:49;;;;;;;1.27;0.40;;;;;;;;;;5054393;28;20025;-64
2022/01/22 11:14:15;;;;;;;0.70;0.30;;;;;;;;;;5055310;28;20096;-64
2022/01/22 11:16:42;;;;;;;0.80;0.35;;;;;;;;;;5055456;28;20021;-64
2022/01/22 11:19:08;;;;;;;0.30;0.30;;;;;;;;;;5055271;28;20468;-64
2022/01/22 11:21:35;;;;;;;0.65;0.30;;;;;;;;;;5055062;28;20328;-63
2022/01/22 11:24:00;;;;;;;0.63;0.20;;;;;;;;;;5055378;28;20049;-64
2022/01/22 11:26:26;;;;;;;0.40;0.10;;;;;;;;;;5054962;28;20511;-63
2022/01/22 11:28:53;;;;;;;0.77;0.40;;;;;;;;;;5055235;28;20579;-64
2022/01/22 11:31:20;;;;;;;0.32;0.15;;;;;;;;;;5054934;28;20017;-63
2022/01/22 11:33:46;;;;;;;0.45;0.15;;;;;;;;;;5055068;28;20032;-64
2022/01/22 11:36:26;;;;;;;0.47;0.32;;;;;;;;;;5054913;28;20076;-64
2022/01/22 11:38:53;;;;;;;1.35;0.30;;;;;;;;;;5055087;28;20096;-63
2022/01/22 11:41:21;;;;;;;0.63;0.30;;;;;;;;;;5053406;28;20021;-64
2022/01/22 11:44:17;;;;;;;0.75;0.30;;;;;;;;;;5054924;28;20476;-63
2022/01/22 11:46:46;;;;;;;0.20;0.10;;;;;;;;;;5054770;28;20040;-64
2022/01/22 11:49:16;;;;;;;0.45;0.17;;;;;;;;;;5054629;28;20013;-64
2022/01/22 11:51:42;;;;;;;0.30;0.20;;;;;;;;;;5054668;28;20028;-64
2022/01/22 11:54:07;;;;;;;0.22;0.10;;;;;;;;;;5054658;28;20062;-64
2022/01/22 11:56:43;;;;;;;0.52;0.28;;;;;;;;;;5054634;28;20423;-63
2022/01/22 11:59:11;;;;;;;0.65;0.20;;;;;;;;;;5054572;28;20216;-64
2022/01/22 12:01:39;;;;;;;0.10;0.10;;;;;;;;;;5054127;28;20088;-64
2022/01/22 12:04:05;;;;;;;1.23;0.43;;;;;;;;;;5054518;28;20021;-64
2022/01/22 12:06:30;;;;;;;1.10;0.30;;;;;;;;;;5054100;28;20114;-64
2022/01/22 12:09:02;;;;;;;0.67;0.20;;;;;;;;;;5054538;28;20021;-64
2022/01/22 12:14:47;;;;;;;0.65;0.20;;;;;;;;;;5054354;28;20591;-64
2022/01/22 12:17:18;;;;;;;0.60;0.10;;;;;;;;;;5052792;28;20476;-64
2022/01/22 12:19:52;;;;;;;1.05;0.32;;;;;;;;;;5054192;28;20075;-64
2022/01/22 12:22:35;;;;;;;0.88;0.25;;;;;;;;;;5054410;28;20419;-63
2022/01/22 12:25:03;;;;;;;0.85;0.28;;;;;;;;;;5054231;28;20021;-64
2022/01/22 12:27:44;;;;;;;1.13;0.22;;;;;;;;;;5053716;28;20069;-63
2022/01/22 12:30:09;;;;;;;0.88;0.38;;;;;;;;;;5053951;28;20017;-64
2022/01/22 12:33:01;;;;;;;1.40;0.33;;;;;;;;;;5054311;28;20088;-64
2022/01/22 12:35:34;;;;;;;0.55;0.30;;;;;;;;;;5050618;28;20258;-63
2022/01/22 12:38:21;;;;;;;1.27;0.30;;;;;;;;;;5053936;28;20017;-64
2022/01/22 12:40:50;;;;;;;0.90;0.45;;;;;;;;;;5053954;28;20017;-63
2022/01/22 12:43:25;;;;;;;1.17;0.40;;;;;;;;;;5053501;28;20021;-64
2022/01/22 12:45:53;;;;;;;1.48;0.47;;;;;;;;;;5053778;28;20086;-64
2022/01/22 12:48:19;;;;;;;0.57;0.38;;;;;;;;;;5053448;28;20496;-64
2022/01/22 12:50:44;;;;;;;0.20;0.20;;;;;;;;;;5053648;28;20021;-64
2022/01/22 12:53:11;;;;;;;0.90;0.20;;;;;;;;;;5053492;28;20463;-63
2022/01/22 12:58:28;;;;;;;0.40;0.25;;;;;;;;;;5053637;28;20075;-63
2022/01/22 13:01:11;;;;;;;0.52;0.30;;;;;;;;;;5053551;28;20381;-64
2022/01/22 13:03:38;;;;;;;0.40;0.35;;;;;;;;;;5053314;28;20104;-64
2022/01/22 13:06:04;;;;;;;0.60;0.30;;;;;;;;;;5053092;28;20481;-64
2022/01/22 13:08:30;;;;;;;1.05;0.28;;;;;;;;;;5053162;28;20031;-64
2022/01/22 13:10:57;;;;;;;0.82;0.20;;;;;;;;;;5053114;28;20016;-63
2022/01/22 13:13:22;;;;;;;0.52;0.30;;;;;;;;;;5052103;28;20024;-64
2022/01/22 13:15:59;;;;;;;0.50;0.20;;;;;;;;;;5053225;28;20041;-63
2022/01/22 13:18:24;;;;;;;0.47;0.20;;;;;;;;;;5052850;28;20029;-64
2022/01/22 13:20:49;;;;;;;1.60;0.37;;;;;;;;;;5053122;28;20075;-63
2022/01/22 13:23:16;;;;;;;0.95;0.30;;;;;;;;;;5053078;28;20103;-64
2022/01/22 13:25:41;;;;;;;0.98;0.17;;;;;;;;;;5052930;28;20111;-64
2022/01/22 13:28:10;;;;;;;0.82;0.70;;;;;;;;;;5052832;28;20180;-63
2022/01/22 13:30:41;;;;;;;0.77;0.20;;;;;;;;;;5052919;28;20079;-64
2022/01/22 13:33:16;;;;;;;0.52;0.20;;;;;;;;;;5053130;28;20119;-63
2022/01/22 13:49:07;;;;;;;0.60;0.10;;;;;;;;;;5052547;28;20035;-64
2022/01/22 13:51:33;;;;;;;0.43;0.20;;;;;;;;;;5052663;28;20020;-64
2022/01/22 13:53:59;;;;;;;0.15;0.13;;;;;;;;;;5052618;28;20017;-64
2022/01/22 13:56:47;;;;;;;1.17;0.35;;;;;;;;;;5052389;28;20029;-64
2022/01/22 13:59:20;;;;;;;1.20;0.35;;;;;;;;;;5052258;28;20048;-63
2022/01/22 14:02:06;;;;;;;0.13;0.10;;;;;;;;;;5052557;28;20479;-64
2022/01/22 14:04:45;;;;;;;0.98;0.32;;;;;;;;;;5052389;28;20069;-64
2022/01/22 14:07:17;;;;;;;0.10;0.10;;;;;;;;;;5052073;28;20486;-64
2022/01/22 14:09:54;;;;;;;0.28;0.28;;;;;;;;;;5052597;28;20024;-64
2022/01/22 14:12:20;;;;;;;0.20;0.20;;;;;;;;;;5052150;28;20440;-63
2022/01/22 14:15:05;;;;;;;0.25;0.10;;;;;;;;;;5052324;28;20160;-64
2022/01/22 14:17:41;;;;;;;0.63;0.22;;;;;;;;;;5051942;28;20036;-64
2022/01/22 14:20:08;;;;;;;0.57;0.20;;;;;;;;;;5052270;28;20346;-64
2022/01/22 14:22:52;;;;;;;0.40;0.30;;;;;;;;;;5052172;28;20021;-64
2022/01/22 14:25:17;;;;;;;0.60;0.20;;;;;;;;;;5054854;28;20025;-64
2022/01/22 14:27:42;;;;;;;1.20;0.20;;;;;;;;;;5054908;28;20021;-64
2022/01/22 14:30:08;;;;;;;0.38;0.28;;;;;;;;;;5056265;28;20422;-64
2022/01/22 14:32:33;;;;;;;0.68;0.40;;;;;;;;;;5056224;28;20032;-64
2022/01/22 14:34:59;;;;;;;0.80;0.45;;;;;;;;;;5056305;28;20464;-64
2022/01/22 14:37:30;;;;;;;0.60;0.50;;;;;;;;;;5056112;28;20435;-64
2022/01/22 14:45:20;;;;;;;0.40;0.15;;;;;;;;;;5055771;28;20412;-64
2022/01/22 14:47:50;;;;;;;0.33;0.33;;;;;;;;;;5055974;28;20025;-63
2022/01/22 14:50:16;;;;;;;0.20;0.10;;;;;;;;;;5055820;28;20724;-64
2022/01/22 14:52:41;;;;;;;1.57;0.30;;;;;;;;;;5055904;28;20020;-64
2022/01/22 14:55:09;;;;;;;2.92;0.45;;;;;;;;;;5055767;28;20092;-63
2022/01/22 14:57:39;;;;;;;0.63;0.32;;;;;;;;;;5055649;28;20028;-64
2022/01/22 15:00:07;;;;;;;1.05;0.40;;;;;;;;;;5055796;28;20025;-63
2022/01/22 15:02:32;;;;;;;0.75;0.30;;;;;;;;;;5055668;28;20013;-64
2022/01/22 15:04:58;;;;;;;0.30;0.20;;;;;;;;;;5055582;28;20489;-63
2022/01/22 15:07:23;;;;;;;0.37;0.10;;;;;;;;;;5055240;28;20098;-63
2022/01/22 15:09:49;;;;;;;0.90;0.20;;;;;;;;;;5055668;28;20272;-64
2022/01/22 15:12:16;;;;;;;0.35;0.20;;;;;;;;;;5055467;28;20280;-63
2022/01/22 15:14:42;;;;;;;0.50;0.20;;;;;;;;;;5055509;28;20021;-64
2022/01/22 15:19:33;;;;;;;0.30;0.20;;;;;;;;;;5055736;28;20021;-64
2022/01/22 15:21:58;;;;;;;0.75;0.20;;;;;;;;;;5055441;28;20025;-63
2022/01/22 15:24:25;;;;;;;0.90;0.20;;;;;;;;;;5055170;28;20021;-64
2022/01/22 15:26:51;;;;;;;0.40;0.20;;;;;;;;;;5055234;28;20280;-64
2022/01/22 15:29:24;;;;;;;0.20;0.20;;;;;;;;;;5055067;28;20025;-65
2022/01/22 15:32:05;;;;;;;0.35;0.25;;;;;;;;;;5055598;28;20017;-64
2022/01/22 15:37:00;;;;;;;0.50;0.30;;;;;;;;;;5055233;28;20029;-64
2022/01/22 15:39:26;;;;;;;0.93;0.30;;;;;;;;;;5054726;28;20233;-63
2022/01/22 15:41:52;;;;;;;0.32;0.20;;;;;;;;;;5055052;28;20028;-64
2022/01/22 15:44:17;;;;;;;0.20;0.10;;;;;;;;;;5034933;28;20036;-64
2022/01/22 15:46:44;;;;;;;0.38;0.20;;;;;;;;;;5034875;28;20067;-64
2022/01/22 15:49:18;;;;;;;0.93;0.22;;;;;;;;;;5033575;28;20396;-64
2022/01/22 15:51:43;;;;;;;;;;;;;;;;;;5035249;28;20045;-63
2022/01/22 15:54:09;;;;;;;0.47;0.28;;;;;;;;;;5041252;28;19963;-64
2022/01/22 15:56:36;;;;;;;1.33;0.20;;;;;;;;;;5054648;28;20025;-63
2022/01/22 15:59:01;;;;;;;0.17;0.15;;;;;;;;;;5054749;28;20407;-64
2022/01/22 16:01:27;;;;;;;1.48;0.20;;;;;;;;;;5054621;28;20518;-63
2022/01/22 16:03:56;;;;;;;0.43;0.20;;;;;;;;;;5054549;28;20037;-64
2022/01/22 16:06:23;;;;;;;0.20;0.20;;;;;;;;;;5054142;28;20099;-64
2022/01/22 16:08:48;;;;;;;0.45;0.08;;;;;;;;;;5054526;28;20055;-63
2022/01/22 16:11:14;;;;;;;1.25;0.30;;;;;;;;;;5054305;28;20029;-64
2022/01/22 16:13:41;;;;;;;0.30;0.30;;;;;;;;;;5054286;28;20023;-63
2022/01/22 16:16:07;;;;;;;1.80;0.28;;;;;;;;;;5054378;28;20013;-64
2022/01/22 16:18:33;;;;;;;0.20;0.20;;;;;;;;;;5054449;28;20024;-64
2022/01/22 16:20:58;;;;;;;0.90;0.30;;;;;;;;;;5053108;28;20260;-64
2022/01/22 16:23:23;;;;;;;0.95;0.30;;;;;;;;;;5054169;28;20090;-64
2022/01/22 16:25:49;;;;;;;0.70;0.40;;;;;;;;;;5054274;28;20425;-63
2022/01/22 16:28:15;;;;;;;0.77;0.30;;;;;;;;;;5053940;28;20298;-64
2022/01/22 16:30:40;;;;;;;1.33;0.30;;;;;;;;;;5054079;28;20043;-63
2022/01/22 16:33:05;;;;;;;1.03;0.50;;;;;;;;;;5054087;28;20021;-64
2022/01/22 16:35:30;;;;;;;0.50;0.30;;;;;;;;;;5053737;28;20734;-63
2022/01/22 16:37:55;;;;;;;0.90;0.60;;;;;;;;;;5053993;28;20020;-64
2022/01/22 16:40:25;;;;;;;0.33;0.20;;;;;;;;;;5053670;28;20036;-64
2022/01/22 16:42:59;;;;;;;1.52;0.50;;;;;;;;;;5053807;28;20593;-64
2022/01/22 16:56:10;;;;;;;0.77;0.28;;;;;;;;;;5053953;28;20104;-64
2022/01/22 16:58:45;;;;;;;0.50;0.20;;;;;;;;;;5053570;28;20148;-64